Time;durP1;ratioP1;P1;durP2;ratioP2;P2;SDS_P1;SDS_P2;PMS_P1;PMS_P2;Temp;Humidity;BMP_temperature;BMP_pressure;BME280_temperature;BME280_humidity;BME280_pressure;Samples;Min_cycle;Max_cycle;Signal;HPM_P1;HPM_P2
2022/07/20 00:01:35;;;;;;;4.9;4.2;;;;;;;21.01;65.69727;939.7894;;;;
2022/07/20 00:04:01;;;;;;;4.6;4;;;;;;;21.02;65.67578;939.7203;;;;
2022/07/20 00:06:26;;;;;;;7.1;4.2;;;;;;;21.03;65.51465;939.7;;;;
2022/07/20 00:11:22;;;;;;;6.5;4.6;;;;;;;20.82;66.35938;939.7442;;;;
2022/07/20 00:13:41;;;;;;;6.6;4.5;;;;;;;20.81;66.36914;939.7008;;;;
2022/07/20 00:16:12;;;;;;;5.5;4.7;;;;;;;20.76;66.68945;939.7377;;;;
2022/07/20 00:18:39;;;;;;;4.7;4.2;;;;;;;20.73;66.58984;939.6795;;;;
2022/07/20 00:21:04;;;;;;;5.9;4.5;;;;;;;20.54;66.87891;939.6519;;;;
2022/07/20 00:23:31;;;;;;;5.3;4.2;;;;;;;20.41;67.33594;939.7231;;;;
2022/07/20 00:25:56;;;;;;;4.9;4.4;;;;;;;20.43;67.18848;939.7681;;;;
2022/07/20 00:28:22;;;;;;;4.6;4.2;;;;;;;20.54;67.47363;939.695;;;;
2022/07/20 00:30:47;;;;;;;5;4.5;;;;;;;20.64;66.96289;939.6641;;;;
2022/07/20 00:33:17;;;;;;;4.7;4.2;;;;;;;20.59;66.6875;939.6223;;;;
2022/07/20 00:35:42;;;;;;;5.7;4.1;;;;;;;20.65;66.8252;939.6638;;;;
2022/07/20 00:38:07;;;;;;;6.6;4.5;;;;;;;20.7;66.54004;939.6503;;;;
2022/07/20 00:40:33;;;;;;;5.2;4.6;;;;;;;20.72;66.625;939.6669;;;;
2022/07/20 00:42:59;;;;;;;4.9;3.9;;;;;;;20.69;66.52734;939.5624;;;;
2022/07/20 00:45:24;;;;;;;6.1;4.5;;;;;;;20.54;67.33301;939.5589;;;;
2022/07/20 00:47:51;;;;;;;5.3;4.4;;;;;;;20.5;67.57227;939.5916;;;;
2022/07/20 00:50:16;;;;;;;6.2;4.4;;;;;;;20.35;68.18164;939.6028;;;;
2022/07/20 00:52:42;;;;;;;5.2;4.6;;;;;;;20.22;68.84766;939.598;;;;
2022/07/20 00:55:07;;;;;;;5;4.5;;;;;;;20.02;69.85742;939.6636;;;;
2022/07/20 00:57:35;;;;;;;5;4.5;;;;;;;20.05;69.5;939.6047;;;;
2022/07/20 01:00:00;;;;;;;6;4.2;;;;;;;20.17;69.01465;939.6252;;;;
2022/07/20 01:02:25;;;;;;;5.7;4.1;;;;;;;20.3;68.62891;939.5703;;;;
2022/07/20 01:04:50;;;;;;;7.2;4.7;;;;;;;20.15;69.02539;939.6135;;;;
2022/07/20 01:07:16;;;;;;;6.3;4.5;;;;;;;20.24;68.51367;939.567;;;;
2022/07/20 01:09:41;;;;;;;6.2;4.9;;;;;;;20.32;68.24512;939.5173;;;;
2022/07/20 01:12:08;;;;;;;6.8;4.6;;;;;;;20.29;68.35742;939.5891;;;;
2022/07/20 01:14:33;;;;;;;7.1;5.1;;;;;;;20.1;69.13477;939.546;;;;
2022/07/20 01:16:58;;;;;;;5.6;4.4;;;;;;;20.03;69.43848;939.5535;;;;
2022/07/20 01:19:24;;;;;;;5.2;4.5;;;;;;;20.01;69.74902;939.5212;;;;
2022/07/20 01:21:49;;;;;;;5.8;4.6;;;;;;;19.84;70.36523;939.473;;;;
2022/07/20 01:24:16;;;;;;;7;4.9;;;;;;;19.64;71.32324;939.5915;;;;
2022/07/20 01:26:41;;;;;;;8.6;6.1;;;;;;;19.76;70.89844;939.5651;;;;
2022/07/20 01:29:07;;;;;;;5.9;4.8;;;;;;;19.92;70.18945;939.5358;;;;
2022/07/20 01:31:32;;;;;;;5.8;4.8;;;;;;;19.9;70.17676;939.5313;;;;
2022/07/20 01:33:58;;;;;;;4.9;4.4;;;;;;;19.91;70.33984;939.5666;;;;
2022/07/20 01:36:23;;;;;;;4.8;4.3;;;;;;;19.96;69.9873;939.5922;;;;
2022/07/20 01:38:50;;;;;;;5.8;4.5;;;;;;;19.73;70.80078;939.5432;;;;
2022/07/20 01:41:15;;;;;;;6.5;4.8;;;;;;;19.74;70.89551;939.5236;;;;
2022/07/20 01:43:42;;;;;;;5.5;4.4;;;;;;;19.82;71.02539;939.5452;;;;
2022/07/20 01:46:07;;;;;;;5.8;4.6;;;;;;;19.85;70.70313;939.476;;;;
2022/07/20 01:48:33;;;;;;;6.4;5;;;;;;;19.74;71.02539;939.5631;;;;
2022/07/20 01:50:58;;;;;;;7.9;4.7;;;;;;;19.67;71.27148;939.5575;;;;
2022/07/20 01:53:25;;;;;;;8.4;5;;;;;;;19.57;71.7793;939.5522;;;;
2022/07/20 01:55:50;;;;;;;7.5;5.2;;;;;;;19.6;71.57324;939.558;;;;
2022/07/20 01:58:17;;;;;;;5.2;4.6;;;;;;;19.66;71.52539;939.5464;;;;
2022/07/20 02:00:42;;;;;;;6.2;4.8;;;;;;;19.78;71.1709;939.5734;;;;
2022/07/20 02:03:08;;;;;;;5.7;5.1;;;;;;;19.82;71.30566;939.5185;;;;
2022/07/20 02:05:34;;;;;;;7.6;5.4;;;;;;;19.89;70.78027;939.6131;;;;
2022/07/20 02:07:58;;;;;;;6.3;4.5;;;;;;;19.89;70.47754;939.5461;;;;
2022/07/20 02:10:24;;;;;;;7.7;4.7;;;;;;;19.71;71.125;939.5751;;;;
2022/07/20 02:12:51;;;;;;;5.8;4.6;;;;;;;19.57;71.56934;939.5192;;;;
2022/07/20 02:16:14;;;;;;;5.1;4.6;;;;;;;19.61;71.54004;939.5223;;;;
2022/07/20 02:17:41;;;;;;;5.4;4.7;;;;;;;19.68;71.22559;939.5437;;;;
2022/07/20 02:20:07;;;;;;;6.7;5;;;;;;;19.71;71.42773;939.5631;;;;
2022/07/20 02:22:35;;;;;;;5.8;5;;;;;;;19.7;71.32129;939.5083;;;;
2022/07/20 02:25:00;;;;;;;8.1;5.1;;;;;;;19.66;71.47852;939.5754;;;;
2022/07/20 02:27:27;;;;;;;6.5;5.3;;;;;;;19.56;71.82422;939.5541;;;;
2022/07/20 02:29:52;;;;;;;7.6;4.9;;;;;;;19.52;71.87695;939.507;;;;
2022/07/20 02:32:18;;;;;;;6.1;4.8;;;;;;;19.44;72.22461;939.5605;;;;
2022/07/20 02:34:43;;;;;;;7.4;5.4;;;;;;;19.45;72.17969;939.549;;;;
2022/07/20 02:37:10;;;;;;;5.7;4.6;;;;;;;19.49;72.03418;939.5602;;;;
2022/07/20 02:39:35;;;;;;;7.4;4.9;;;;;;;19.46;72.00586;939.5577;;;;
2022/07/20 02:42:00;;;;;;;7.6;4.9;;;;;;;19.31;72.56348;939.5728;;;;
2022/07/20 02:44:30;;;;;;;8.9;5.1;;;;;;;19.26;72.77539;939.5435;;;;
2022/07/20 02:46:55;;;;;;;6.7;4.6;;;;;;;19.34;72.33496;939.5659;;;;
2022/07/20 02:49:20;;;;;;;7.7;4.6;;;;;;;19.45;71.95801;939.5877;;;;
2022/07/20 02:51:45;;;;;;;5.5;4.7;;;;;;;19.57;71.37109;939.5862;;;;
2022/07/20 02:54:13;;;;;;;5.5;4.5;;;;;;;19.54;71.41211;939.5934;;;;
2022/07/20 02:56:39;;;;;;;6;4.9;;;;;;;19.49;71.6709;939.6227;;;;
2022/07/20 02:59:07;;;;;;;5.9;5;;;;;;;19.49;71.97559;939.6588;;;;
2022/07/20 03:01:32;;;;;;;11.2;5.5;;;;;;;19.28;72.57031;939.6236;;;;
2022/07/20 03:04:02;;;;;;;5.1;4.6;;;;;;;19.14;73.26855;939.6449;;;;
2022/07/20 03:06:28;;;;;;;5.1;4.6;;;;;;;19.06;73.75586;939.6168;;;;
2022/07/20 03:08:59;;;;;;;6.3;4.7;;;;;;;19.17;73.32031;939.6953;;;;
2022/07/20 03:11:25;;;;;;;7;5.4;;;;;;;19.25;73.14746;939.6808;;;;
2022/07/20 03:13:50;;;;;;;6.1;4.9;;;;;;;19.25;72.99707;939.7122;;;;
2022/07/20 03:16:17;;;;;;;6.4;4.8;;;;;;;19.18;73.22852;939.716;;;;
2022/07/20 03:18:42;;;;;;;6.8;4.8;;;;;;;19.14;73.55957;939.733;;;;
2022/07/20 03:21:13;;;;;;;5.8;5.2;;;;;;;19.11;73.65918;939.6941;;;;
2022/07/20 03:23:40;;;;;;;6.5;5;;;;;;;19.08;73.80566;939.7319;;;;
2022/07/20 03:26:08;;;;;;;6.3;5.1;;;;;;;19.08;73.92188;939.7578;;;;
2022/07/20 03:28:34;;;;;;;7.2;4.5;;;;;;;18.98;74.3125;939.7675;;;;
2022/07/20 03:31:01;;;;;;;9.5;5.2;;;;;;;19.03;73.96094;939.7885;;;;
2022/07/20 03:33:27;;;;;;;8.7;5.1;;;;;;;19.09;74.05273;939.8679;;;;
2022/07/20 03:35:53;;;;;;;10.4;4.9;;;;;;;19.16;74.21484;939.8455;;;;
2022/07/20 03:38:23;;;;;;;8.5;4.7;;;;;;;19.25;73.42676;939.8681;;;;
2022/07/20 03:40:48;;;;;;;6.3;4.6;;;;;;;19.22;73.51563;939.8776;;;;
2022/07/20 03:43:17;;;;;;;7.4;5;;;;;;;19.2;73.86133;939.8576;;;;
2022/07/20 03:45:47;;;;;;;6.3;4.6;;;;;;;19.16;73.59961;939.8995;;;;
2022/07/20 03:48:14;;;;;;;6.1;4.7;;;;;;;19.26;73.13672;939.931;;;;
2022/07/20 03:50:42;;;;;;;7.6;5.2;;;;;;;19.33;73.29883;939.9481;;;;
2022/07/20 03:53:12;;;;;;;7.6;5.6;;;;;;;19.13;73.38379;939.9196;;;;
2022/07/20 03:55:41;;;;;;;6.4;5.1;;;;;;;19.07;73.78125;939.9371;;;;
2022/07/20 03:58:07;;;;;;;9.2;5.8;;;;;;;19.2;73.47559;939.9465;;;;
2022/07/20 04:02:47;;;;;;;8.5;5.9;;;;;;;19.35;73.11719;939.9775;;;;
2022/07/20 04:05:19;;;;;;;9;5.2;;;;;;;19.3;73.00488;939.9841;;;;
2022/07/20 04:07:45;;;;;;;8.8;5.7;;;;;;;19.08;74.00488;939.973;;;;
2022/07/20 04:10:18;;;;;;;6.8;5.1;;;;;;;19.1;73.7168;940.0356;;;;
2022/07/20 04:12:46;;;;;;;7.3;5.2;;;;;;;19.19;73.68555;940.0039;;;;
2022/07/20 04:15:22;;;;;;;8.3;5.1;;;;;;;19.17;73.58789;940.0206;;;;
2022/07/20 04:17:51;;;;;;;8.2;4.9;;;;;;;19.14;73.76953;939.9832;;;;
2022/07/20 04:20:17;;;;;;;8;4.8;;;;;;;19.17;73.83203;939.9866;;;;
2022/07/20 04:22:44;;;;;;;7.2;5.1;;;;;;;19.3;73.72559;940.0351;;;;
2022/07/20 04:25:12;;;;;;;5.5;4.8;;;;;;;19.39;73.69531;940.0396;;;;
2022/07/20 04:27:37;;;;;;;7.9;5.5;;;;;;;19.34;72.97754;940.0092;;;;
2022/07/20 04:30:02;;;;;;;6.6;4.8;;;;;;;19.33;73.00879;940.0036;;;;
2022/07/20 04:32:29;;;;;;;8.3;5.3;;;;;;;19.3;73.21387;940.0955;;;;
2022/07/20 04:34:54;;;;;;;7.8;4.9;;;;;;;19.43;72.80371;940.0447;;;;
2022/07/20 04:37:22;;;;;;;7.3;4.8;;;;;;;19.56;72.75684;940.1033;;;;
2022/07/20 04:39:47;;;;;;;8.9;5.3;;;;;;;19.63;72.3125;940.1676;;;;
2022/07/20 04:42:14;;;;;;;6;4.9;;;;;;;19.74;72.64453;940.2299;;;;
2022/07/20 04:44:40;;;;;;;9.4;5.3;;;;;;;19.74;71.6084;940.1578;;;;
2022/07/20 04:47:07;;;;;;;7.2;5.3;;;;;;;19.62;72.19434;940.2202;;;;
2022/07/20 04:49:32;;;;;;;7.2;5.3;;;;;;;19.64;72.47852;940.1666;;;;
2022/07/20 04:51:57;;;;;;;8.7;5.4;;;;;;;19.6;72.68066;940.2181;;;;
2022/07/20 04:54:31;;;;;;;9.7;4.9;;;;;;;19.69;72.55566;940.2478;;;;
2022/07/20 04:57:02;;;;;;;6.7;5;;;;;;;19.81;72.45898;940.2508;;;;
2022/07/20 04:59:32;;;;;;;9;5.5;;;;;;;19.93;72.30469;940.2791;;;;
2022/07/20 05:01:57;;;;;;;9.1;5.3;;;;;;;19.92;71.84766;940.2332;;;;
2022/07/20 05:04:28;;;;;;;9.1;5.8;;;;;;;19.91;71.70508;940.21;;;;
2022/07/20 05:07:01;;;;;;;8.1;5.8;;;;;;;19.91;71.36621;940.2392;;;;
2022/07/20 05:09:31;;;;;;;9.7;6.2;;;;;;;19.86;71.56738;940.2468;;;;
2022/07/20 05:12:03;;;;;;;14.7;6.6;;;;;;;19.98;71.40137;940.2255;;;;
2022/07/20 05:14:28;;;;;;;8.9;5.7;;;;;;;20.09;71.17383;940.1696;;;;
2022/07/20 05:16:55;;;;;;;10.2;5.5;;;;;;;20.42;70.20996;940.2139;;;;
2022/07/20 05:19:23;;;;;;;8.8;5.9;;;;;;;21.32;67.16016;940.1725;;;;
2022/07/20 05:21:48;;;;;;;7.8;4.9;;;;;;;22.07;64.50781;940.1495;;;;
2022/07/20 05:24:17;;;;;;;5.2;4.4;;;;;;;22.57;62.91309;940.1728;;;;
2022/07/20 05:26:42;;;;;;;6.7;4.3;;;;;;;23.13;60.75977;940.1998;;;;
2022/07/20 05:29:08;;;;;;;7.9;5;;;;;;;23.12;60.58105;940.2556;;;;
2022/07/20 05:31:33;;;;;;;6.9;4.6;;;;;;;22.83;61.56445;940.2313;;;;
2022/07/20 05:34:00;;;;;;;6.5;4.9;;;;;;;23.22;60.80762;940.2606;;;;
2022/07/20 05:36:26;;;;;;;7;4.5;;;;;;;23.32;60.28027;940.3109;;;;
2022/07/20 05:38:53;;;;;;;5.5;4.5;;;;;;;23.9;58.60449;940.257;;;;
2022/07/20 05:41:18;;;;;;;7;4.7;;;;;;;24.6;56.79883;940.2877;;;;
2022/07/20 05:43:43;;;;;;;4.8;4.3;;;;;;;25.34;53.91699;940.2452;;;;
2022/07/20 05:46:12;;;;;;;10.4;5;;;;;;;26.39;51.7002;940.1661;;;;
2022/07/20 05:48:43;;;;;;;13;5.3;;;;;;;27.21;49.94629;940.1563;;;;
2022/07/20 05:51:09;;;;;;;9.3;4.2;;;;;;;27.85;47.81934;940.19;;;;
2022/07/20 05:53:36;;;;;;;8.2;4.4;;;;;;;28.24;46.44629;940.2199;;;;
2022/07/20 05:56:01;;;;;;;8.2;4.7;;;;;;;28.26;46.49609;940.1998;;;;
2022/07/20 05:58:26;;;;;;;6.9;4;;;;;;;28.95;44.69824;940.1131;;;;
2022/07/20 06:00:52;;;;;;;5.9;4;;;;;;;29.47;43.71289;940.1379;;;;
2022/07/20 06:03:17;;;;;;;6.1;4.3;;;;;;;29.87;42.83301;940.1543;;;;
2022/07/20 06:05:44;;;;;;;5.7;4.1;;;;;;;30.57;40.73828;940.1141;;;;
2022/07/20 06:08:09;;;;;;;5.9;4;;;;;;;31.01;40.29883;940.0611;;;;
2022/07/20 06:10:38;;;;;;;7.3;4.5;;;;;;;30.88;40.66992;940.1194;;;;
2022/07/20 06:13:06;;;;;;;8.4;4.2;;;;;;;31.11;40.18848;940.0401;;;;
2022/07/20 06:15:34;;;;;;;7.7;4;;;;;;;32.31;38.45996;940.108;;;;
2022/07/20 06:17:59;;;;;;;5.6;3.9;;;;;;;32.43;37.41406;940.1103;;;;
2022/07/20 06:20:24;;;;;;;5.7;4.1;;;;;;;32.61;36.27734;940.0999;;;;
2022/07/20 06:22:52;;;;;;;6.1;3.9;;;;;;;31.46;38.16016;940.0696;;;;
2022/07/20 06:25:17;;;;;;;6.8;4.5;;;;;;;32.32;36.98535;940.0291;;;;
2022/07/20 06:27:45;;;;;;;8.9;4.4;;;;;;;33.56;35.27051;940.0237;;;;
2022/07/20 06:30:15;;;;;;;7.4;4.3;;;;;;;33.83;34.13574;940.0876;;;;
2022/07/20 06:32:40;;;;;;;5.8;4.2;;;;;;;34.29;33.05078;940.0645;;;;
2022/07/20 06:35:06;;;;;;;4.2;3.8;;;;;;;35.32;32.35254;940.0876;;;;
2022/07/20 06:37:32;;;;;;;5.9;4.4;;;;;;;34.85;31.43848;940.098;;;;
2022/07/20 06:40:01;;;;;;;6;3.7;;;;;;;33.56;33.62305;940.1074;;;;
2022/07/20 06:42:32;;;;;;;4.2;3.7;;;;;;;34.62;32.35156;940.0533;;;;
2022/07/20 06:45:01;;;;;;;6.2;4.1;;;;;;;34.97;31.90527;940.0542;;;;
2022/07/20 06:47:26;;;;;;;5.8;3.8;;;;;;;35.27;32.05957;940.0731;;;;
2022/07/20 06:49:55;;;;;;;12.2;4.4;;;;;;;36.26;29.69727;940.1411;;;;
2022/07/20 06:52:20;;;;;;;6.3;4.4;;;;;;;35.4;31.10254;940.1489;;;;
2022/07/20 06:54:48;;;;;;;5.1;4.4;;;;;;;35.17;31.59375;940.1145;;;;
2022/07/20 06:57:14;;;;;;;4.8;4.2;;;;;;;35.52;31.11035;940.0696;;;;
2022/07/20 06:59:41;;;;;;;5.4;4.6;;;;;;;35.89;29.9873;940.135;;;;
2022/07/20 07:02:06;;;;;;;4.7;3.9;;;;;;;36.92;30.18848;940.1025;;;;
2022/07/20 07:04:32;;;;;;;4.5;3.7;;;;;;;37.76;27.61035;940.1214;;;;
2022/07/20 07:06:58;;;;;;;5.8;4.1;;;;;;;37.32;28.66211;940.1188;;;;
2022/07/20 07:09:35;;;;;;;5;4;;;;;;;37.02;30.14648;940.1113;;;;
2022/07/20 07:11:57;;;;;;;7.7;4;;;;;;;37.6;29.21387;940.0874;;;;
2022/07/20 07:14:22;;;;;;;4.2;3.8;;;;;;;37.54;28.61523;940.0609;;;;
2022/07/20 07:16:49;;;;;;;5.3;3.8;;;;;;;39.15;26.96289;940.0036;;;;
2022/07/20 07:19:13;;;;;;;6.3;4.2;;;;;;;38.92;27.36328;940.0432;;;;
2022/07/20 07:21:42;;;;;;;5.1;3.9;;;;;;;39.83;26.22266;940.0574;;;;
2022/07/20 07:24:07;;;;;;;4.5;4.1;;;;;;;39.81;26.47754;940.0312;;;;
2022/07/20 07:26:35;;;;;;;4.5;4.1;;;;;;;40.64;25.05957;940.0672;;;;
2022/07/20 07:29:07;;;;;;;5.1;4.3;;;;;;;39.71;25.05762;939.9739;;;;
2022/07/20 07:31:31;;;;;;;6;4.2;;;;;;;38.62;27.35742;939.9099;;;;
2022/07/20 07:33:59;;;;;;;6.7;4.3;;;;;;;40.94;25.33301;939.9991;;;;
2022/07/20 07:36:24;;;;;;;5.1;4.2;;;;;;;41.65;24.6123;939.9769;;;;
2022/07/20 07:38:52;;;;;;;9;4.6;;;;;;;40.76;23.5752;939.9503;;;;
2022/07/20 07:41:17;;;;;;;4.3;3.8;;;;;;;40.87;23.09277;939.9099;;;;
2022/07/20 07:43:46;;;;;;;7;4.5;;;;;;;40.42;23.82715;939.8831;;;;
2022/07/20 07:46:16;;;;;;;5.3;4.3;;;;;;;40.64;23.97266;939.8672;;;;
2022/07/20 07:48:46;;;;;;;5.2;4.3;;;;;;;39.91;24.34961;939.8091;;;;
2022/07/20 07:51:11;;;;;;;5.2;4;;;;;;;40.83;23.53027;939.8159;;;;
2022/07/20 07:53:40;;;;;;;5.8;4.5;;;;;;;40.91;23.47363;939.829;;;;
2022/07/20 07:56:05;;;;;;;5.1;4.1;;;;;;;41.3;24.50781;939.8452;;;;
2022/07/20 07:58:30;;;;;;;4.8;4.4;;;;;;;42.22;23.36816;939.7977;;;;
2022/07/20 08:00:57;;;;;;;4.2;3.8;;;;;;;42.39;24.39453;939.8553;;;;
2022/07/20 08:03:22;;;;;;;4.4;3.8;;;;;;;42.66;22.6416;939.8716;;;;
2022/07/20 08:05:49;;;;;;;5.3;4.8;;;;;;;41.94;22.1543;939.8248;;;;
2022/07/20 08:08:14;;;;;;;4.7;3.9;;;;;;;41.46;24.06445;939.7619;;;;
2022/07/20 08:10:41;;;;;;;5.7;4.2;;;;;;;40.86;24.52246;939.8013;;;;
2022/07/20 08:13:07;;;;;;;5.3;3.9;;;;;;;41.19;25.10254;939.7772;;;;
2022/07/20 08:15:50;;;;;;;4.5;4;;;;;;;40.75;24.6377;939.7615;;;;
2022/07/20 08:19:02;;;;;;;4.4;4.1;;;;;;;40.91;24.20605;939.7467;;;;
2022/07/20 08:21:29;;;;;;;7.5;4.4;;;;;;;39.39;25.51563;939.6869;;;;
2022/07/20 08:23:55;;;;;;;5.5;4.4;;;;;;;39.64;25.4082;939.6552;;;;
2022/07/20 08:26:23;;;;;;;4.2;3.9;;;;;;;39.56;25.48828;939.6436;;;;
2022/07/20 08:28:48;;;;;;;5.6;4.1;;;;;;;37.89;28.24902;939.6017;;;;
2022/07/20 08:31:14;;;;;;;4.4;4;;;;;;;37.38;29.29688;939.623;;;;
2022/07/20 08:33:39;;;;;;;4.3;3.9;;;;;;;38.04;27.78418;939.6558;;;;
2022/07/20 08:36:05;;;;;;;7.4;4.2;;;;;;;39.51;27.23926;939.649;;;;
2022/07/20 08:38:30;;;;;;;4.4;4;;;;;;;38.03;26.72754;939.5947;;;;
2022/07/20 08:40:59;;;;;;;5.1;4;;;;;;;38.11;28.80957;939.5876;;;;
2022/07/20 08:43:24;;;;;;;4.6;4.2;;;;;;;39.92;27.20313;939.5672;;;;
2022/07/20 08:45:50;;;;;;;5;4.1;;;;;;;40.01;25.92773;939.5912;;;;
2022/07/20 08:48:18;;;;;;;4.5;4.1;;;;;;;39.59;26.09961;939.567;;;;
2022/07/20 08:50:41;;;;;;;5.3;4.3;;;;;;;40.45;25.24512;939.5817;;;;
2022/07/20 08:53:07;;;;;;;6.9;4.7;;;;;;;40.14;25.61816;939.5359;;;;
2022/07/20 08:55:33;;;;;;;6.1;4.4;;;;;;;40.69;25.11133;939.5614;;;;
2022/07/20 08:57:59;;;;;;;4.4;3.8;;;;;;;41.95;21.89746;939.6044;;;;
2022/07/20 09:00:24;;;;;;;4.4;4;;;;;;;42.33;23.12891;939.5742;;;;
2022/07/20 09:02:53;;;;;;;4.3;3.9;;;;;;;42.47;23.55273;939.5475;;;;
2022/07/20 09:05:20;;;;;;;4.8;4.1;;;;;;;42.8;21.03027;939.5678;;;;
2022/07/20 09:07:43;;;;;;;5.4;3.9;;;;;;;42.07;22.71094;939.5772;;;;
2022/07/20 09:10:13;;;;;;;4.4;4;;;;;;;42.57;22.89551;939.5333;;;;
2022/07/20 09:12:38;;;;;;;4.2;3.8;;;;;;;42.26;24.58398;939.5377;;;;
2022/07/20 09:15:09;;;;;;;4.6;4.1;;;;;;;42.54;25.01563;939.5848;;;;
2022/07/20 09:17:36;;;;;;;4.7;4.3;;;;;;;41.58;25.49023;939.5721;;;;
2022/07/20 09:20:08;;;;;;;6.8;4.3;;;;;;;41.43;26.92578;939.5447;;;;
2022/07/20 09:22:31;;;;;;;5.2;4.2;;;;;;;41.27;26.84277;939.5427;;;;
2022/07/20 09:25:00;;;;;;;4.9;3.8;;;;;;;41.52;23.93262;939.5064;;;;
2022/07/20 09:27:56;;;;;;;4.4;3.5;;;;;;;42.56;23.52051;939.5513;;;;
2022/07/20 09:30:19;;;;;;;4.3;3.9;;;;;;;42.27;25.95703;939.5349;;;;
2022/07/20 09:32:45;;;;;;;4.3;3.8;;;;;;;42.19;23.48926;939.5807;;;;
2022/07/20 09:35:11;;;;;;;5.6;3.8;;;;;;;42.53;24.43848;939.5419;;;;
2022/07/20 09:37:36;;;;;;;5;3.7;;;;;;;42.06;24.31543;939.4955;;;;
2022/07/20 09:40:03;;;;;;;6.2;4;;;;;;;42.35;24.46582;939.4775;;;;
2022/07/20 09:42:28;;;;;;;4.8;4;;;;;;;41.97;24.55566;939.4844;;;;
2022/07/20 09:44:57;;;;;;;5.6;3.8;;;;;;;42.63;23.21777;939.4625;;;;
2022/07/20 09:47:23;;;;;;;4.8;4;;;;;;;42.03;24.58398;939.4758;;;;
2022/07/20 09:49:52;;;;;;;4.3;3.9;;;;;;;42.19;23.5752;939.4606;;;;
2022/07/20 09:52:17;;;;;;;4.3;3.8;;;;;;;42.45;22.55859;939.3951;;;;
2022/07/20 09:54:43;;;;;;;5.6;3.7;;;;;;;42.26;23.48047;939.4478;;;;
2022/07/20 09:57:08;;;;;;;4.6;3.8;;;;;;;42.16;22.75293;939.4558;;;;
2022/07/20 09:59:35;;;;;;;4.5;4;;;;;;;41.54;25.16992;939.4528;;;;
2022/07/20 10:02:00;;;;;;;6.4;3.6;;;;;;;41.38;24.12109;939.4166;;;;
2022/07/20 10:04:26;;;;;;;4.1;3.7;;;;;;;41.22;24.79785;939.4039;;;;
2022/07/20 10:06:51;;;;;;;4.6;4.2;;;;;;;41.19;24.7959;939.3492;;;;
2022/07/20 10:09:17;;;;;;;5.3;4.3;;;;;;;40.04;27.85645;939.3733;;;;
2022/07/20 10:11:43;;;;;;;5.6;4.2;;;;;;;40.89;24.88965;939.3585;;;;
2022/07/20 10:14:10;;;;;;;5.3;4.4;;;;;;;40.37;25.36133;939.3939;;;;
2022/07/20 10:16:36;;;;;;;4.6;4.2;;;;;;;40.2;26.71973;939.3764;;;;
2022/07/20 10:19:04;;;;;;;4.7;4.1;;;;;;;39.67;28.11523;939.2698;;;;
2022/07/20 10:21:29;;;;;;;4.9;4.3;;;;;;;39.44;28.17383;939.3231;;;;
2022/07/20 10:24:03;;;;;;;4.8;4;;;;;;;39.09;27.65332;939.3349;;;;
2022/07/20 10:26:28;;;;;;;7.5;4.5;;;;;;;37.21;30.9707;939.3561;;;;
2022/07/20 10:28:57;;;;;;;5;4.2;;;;;;;38.02;28.68262;939.3578;;;;
2022/07/20 10:31:24;;;;;;;5.5;4.3;;;;;;;37.84;29.56934;939.348;;;;
2022/07/20 10:33:49;;;;;;;7.4;4.3;;;;;;;38.11;29.74414;939.3114;;;;
2022/07/20 10:38:43;;;;;;;5.3;4.1;;;;;;;38.19;29.93164;939.3681;;;;
2022/07/20 10:43:34;;;;;;;7.5;4.3;;;;;;;38.16;28.8125;939.3309;;;;
2022/07/20 10:45:59;;;;;;;5.3;4.7;;;;;;;38.52;27.97168;939.3123;;;;
2022/07/20 10:48:24;;;;;;;7.6;4.5;;;;;;;38.78;29.22852;939.2725;;;;
2022/07/20 10:50:53;;;;;;;7;4.5;;;;;;;38.03;29.96973;939.2159;;;;
2022/07/20 10:53:18;;;;;;;6.5;4.3;;;;;;;37.59;30.97266;939.2633;;;;
2022/07/20 10:55:44;;;;;;;5.8;5;;;;;;;37.14;32.04492;939.3024;;;;
2022/07/20 10:58:09;;;;;;;7.4;4.8;;;;;;;36.15;32.78613;939.2578;;;;
2022/07/20 11:00:36;;;;;;;6.2;4.9;;;;;;;36.66;31.22461;939.2622;;;;
2022/07/20 11:03:01;;;;;;;7.2;5;;;;;;;37.01;31.80566;939.2531;;;;
2022/07/20 11:05:27;;;;;;;6.7;5.3;;;;;;;36.68;32.2666;939.2244;;;;
2022/07/20 11:07:51;;;;;;;8.6;4.7;;;;;;;37.08;32.19824;939.2086;;;;
2022/07/20 11:10:18;;;;;;;6.7;4.8;;;;;;;37.02;32.44922;939.2223;;;;
2022/07/20 11:12:44;;;;;;;5.4;4.7;;;;;;;36.89;32.24609;939.2256;;;;
2022/07/20 11:15:16;;;;;;;5.7;4.7;;;;;;;37.14;31.70508;939.216;;;;
2022/07/20 11:17:50;;;;;;;6.1;4.8;;;;;;;37.22;31.12891;939.1379;;;;
2022/07/20 11:20:12;;;;;;;10.3;5;;;;;;;37.21;31.69824;939.1641;;;;
2022/07/20 11:22:38;;;;;;;5.7;5.1;;;;;;;36.49;32.65332;939.1577;;;;
2022/07/20 11:25:03;;;;;;;5.4;4.9;;;;;;;36.55;32.65723;939.1814;;;;
2022/07/20 11:27:28;;;;;;;12.1;5.2;;;;;;;36.31;33.17285;939.1326;;;;
2022/07/20 11:29:53;;;;;;;6.9;5.2;;;;;;;35.98;32.50781;939.0933;;;;
2022/07/20 11:32:18;;;;;;;5.8;5.3;;;;;;;35.2;33.56348;939.0698;;;;
2022/07/20 11:34:44;;;;;;;7.5;5.4;;;;;;;34.7;35.78125;938.9832;;;;
2022/07/20 11:37:11;;;;;;;5.8;5.2;;;;;;;34.69;34.95996;938.9162;;;;
2022/07/20 11:39:36;;;;;;;6.4;5.3;;;;;;;34.44;35.68848;938.9269;;;;
2022/07/20 11:42:04;;;;;;;5.8;5.2;;;;;;;34.23;36.98438;938.9072;;;;
2022/07/20 11:44:29;;;;;;;5.4;4.9;;;;;;;34.01;36.04102;938.9261;;;;
2022/07/20 11:46:54;;;;;;;6.8;5.4;;;;;;;33.93;37.5625;938.9261;;;;
2022/07/20 11:49:24;;;;;;;5.8;5.2;;;;;;;34.14;35.68848;938.912;;;;
2022/07/20 11:51:52;;;;;;;7.2;5.1;;;;;;;34.19;38.33008;938.8929;;;;
2022/07/20 11:54:17;;;;;;;7.4;5.1;;;;;;;34.45;36.23145;938.837;;;;
2022/07/20 11:56:44;;;;;;;7.8;5;;;;;;;34.8;33.81152;938.8912;;;;
2022/07/20 11:59:09;;;;;;;8;5.7;;;;;;;35.19;33.27344;938.8741;;;;
2022/07/20 12:01:36;;;;;;;7.5;5.6;;;;;;;35.01;35.93848;938.8173;;;;
2022/07/20 12:04:03;;;;;;;8.4;5.7;;;;;;;34.95;37.63281;938.8042;;;;
2022/07/20 12:06:27;;;;;;;5.7;5.1;;;;;;;35.02;35.66113;938.7911;;;;
2022/07/20 12:08:56;;;;;;;7.2;5;;;;;;;35.17;35.02051;938.7339;;;;
2022/07/20 12:11:25;;;;;;;6.2;5;;;;;;;35.5;32.42578;938.7547;;;;
2022/07/20 12:13:50;;;;;;;5.6;5.1;;;;;;;35.77;32.10645;938.6931;;;;
2022/07/20 12:16:15;;;;;;;6.3;5.1;;;;;;;35.42;34.55762;938.7151;;;;
2022/07/20 12:18:40;;;;;;;7.4;5.2;;;;;;;35.62;33.83594;938.6731;;;;
2022/07/20 12:21:11;;;;;;;6;5.4;;;;;;;35.55;33.38281;938.6788;;;;
2022/07/20 12:23:40;;;;;;;5.8;5.1;;;;;;;35.7;32.00488;938.6503;;;;
2022/07/20 12:26:05;;;;;;;5.7;5.1;;;;;;;35.71;31.11133;938.6177;;;;
2022/07/20 12:28:36;;;;;;;6;5.1;;;;;;;35.52;32.10059;938.5943;;;;
2022/07/20 12:30:59;;;;;;;5.4;4.9;;;;;;;35.59;31.98535;938.5532;;;;
2022/07/20 12:33:25;;;;;;;6.4;4.5;;;;;;;34.84;31.26953;938.5264;;;;
2022/07/20 12:35:50;;;;;;;7.2;5;;;;;;;35;33.21094;938.5345;;;;
2022/07/20 12:38:15;;;;;;;5.3;4.8;;;;;;;34.46;34.8457;938.4807;;;;
2022/07/20 12:40:43;;;;;;;6.7;5.2;;;;;;;34.5;36.65723;938.49;;;;
2022/07/20 12:43:08;;;;;;;8;5;;;;;;;34.82;33.95703;938.4662;;;;
2022/07/20 12:45:35;;;;;;;6.5;5.2;;;;;;;35.23;31.87598;938.4411;;;;
2022/07/20 12:48:00;;;;;;;6;5.5;;;;;;;34.67;35.00684;938.3884;;;;
2022/07/20 12:50:30;;;;;;;7.7;5.5;;;;;;;34.38;35.28613;938.4244;;;;
2022/07/20 12:52:54;;;;;;;6.3;5.6;;;;;;;34.63;33.19629;938.3644;;;;
2022/07/20 12:55:22;;;;;;;7.2;5.5;;;;;;;35.01;32.35547;938.373;;;;
2022/07/20 12:57:47;;;;;;;6;5.4;;;;;;;35.29;33.4248;938.2593;;;;
2022/07/20 13:00:16;;;;;;;7.1;5.6;;;;;;;35;34.41699;938.338;;;;
2022/07/20 13:02:41;;;;;;;6.5;5.8;;;;;;;34.89;35.65039;938.3196;;;;
2022/07/20 13:05:08;;;;;;;6.6;5.5;;;;;;;35.19;33.75586;938.3656;;;;
2022/07/20 13:07:33;;;;;;;7.2;5.8;;;;;;;35.45;32.78418;938.2919;;;;
2022/07/20 13:09:59;;;;;;;6.8;5.9;;;;;;;35.55;33.90234;938.3044;;;;
2022/07/20 13:12:25;;;;;;;6.2;5.3;;;;;;;35.76;32.0459;938.3233;;;;
2022/07/20 13:14:51;;;;;;;5.3;4.9;;;;;;;35.82;30.74414;938.2751;;;;
2022/07/20 13:17:16;;;;;;;5.9;5.3;;;;;;;35.87;31.12305;938.259;;;;
2022/07/20 13:19:42;;;;;;;8.4;5.8;;;;;;;35.56;32.65918;938.2511;;;;
2022/07/20 13:22:09;;;;;;;6.2;5.4;;;;;;;35.57;32.43066;938.243;;;;
2022/07/20 13:24:34;;;;;;;6.3;5.2;;;;;;;35.39;33.97559;938.1287;;;;
2022/07/20 13:27:02;;;;;;;6.3;5.7;;;;;;;35.04;34.54102;938.1472;;;;
2022/07/20 13:29:27;;;;;;;6.6;5.4;;;;;;;35.1;33.45898;938.111;;;;
2022/07/20 13:31:56;;;;;;;6.6;5.6;;;;;;;34.78;34.05078;938.1075;;;;
2022/07/20 13:34:21;;;;;;;5.6;5.1;;;;;;;35.02;32.77832;938.1272;;;;
2022/07/20 13:36:47;;;;;;;7;5.6;;;;;;;35.2;32.82617;938.0815;;;;
2022/07/20 13:39:12;;;;;;;6.1;5.5;;;;;;;35.33;31.91895;937.9758;;;;
2022/07/20 13:41:42;;;;;;;6.5;5.4;;;;;;;35.07;33.70996;938.1258;;;;
2022/07/20 13:44:12;;;;;;;6.7;5.2;;;;;;;34.9;33.86719;938.1002;;;;
2022/07/20 13:46:41;;;;;;;6.7;6;;;;;;;34.71;35.4082;938.1142;;;;
2022/07/20 13:49:05;;;;;;;6.9;5.7;;;;;;;34.77;33.20703;938.0229;;;;
2022/07/20 13:51:35;;;;;;;6.3;5.2;;;;;;;34.75;34.37402;938.0223;;;;
2022/07/20 13:54:01;;;;;;;6.2;5.6;;;;;;;33.95;36.68555;938.0649;;;;
2022/07/20 13:56:30;;;;;;;7.2;5.5;;;;;;;33.8;35.61426;937.9883;;;;
2022/07/20 13:58:52;;;;;;;6.3;5.6;;;;;;;33.91;34.94824;938.0433;;;;
2022/07/20 14:01:18;;;;;;;6.8;5.2;;;;;;;34.01;33.15039;938.0653;;;;
2022/07/20 14:03:43;;;;;;;6.8;5.5;;;;;;;34.13;33.49707;938.0627;;;;
2022/07/20 14:06:10;;;;;;;7.6;5.4;;;;;;;34.25;33.9873;938.0912;;;;
2022/07/20 14:08:35;;;;;;;6.4;5.8;;;;;;;34.09;33.31348;938.1227;;;;
2022/07/20 14:11:02;;;;;;;8.4;5.2;;;;;;;34.2;34.11621;938.0859;;;;
2022/07/20 14:13:32;;;;;;;6.7;5.2;;;;;;;34.16;33.41504;938.1191;;;;
2022/07/20 14:15:59;;;;;;;5.6;5;;;;;;;34.27;33.20605;938.1127;;;;
2022/07/20 14:18:25;;;;;;;6.7;5.6;;;;;;;34.27;33.41113;938.0945;;;;
2022/07/20 14:20:50;;;;;;;7.9;5.1;;;;;;;34.39;33.78125;938.1236;;;;
2022/07/20 14:23:17;;;;;;;10;5.3;;;;;;;34.48;33.41406;938.1083;;;;
2022/07/20 14:25:42;;;;;;;5.8;5.2;;;;;;;34.53;33.30859;938.1156;;;;
2022/07/20 14:28:10;;;;;;;7.1;5.2;;;;;;;34.56;33.49121;938.0964;;;;
2022/07/20 14:30:35;;;;;;;7.6;5;;;;;;;34.4;34.22754;938.0489;;;;
2022/07/20 14:33:04;;;;;;;7.2;5.4;;;;;;;34.39;33.56445;937.9985;;;;